Terminal Aerodrome Forecast
Issued by NWS Goodland, KS

Home | Current Version | Previous Version | Text Only | Print | Product List | Glossary On
Versions: 1 2 3 4 5 6 7 8 9 10 11 12 13 14 15 16 17 18
560
FTUS43 KGLD 300217 AAA
TAFGLD
TAF AMD
KGLD 300217Z 3002/3024 16025G33KT P6SM FEW110 OVC150
     FM300300 16015G25KT P6SM SCT110 OVC150
     FM300500 18015KT P6SM VCTS BKN100CB OVC150
     FM300800 22009KT P6SM SCT100
     FM301800 17010KT P6SM SCT040=

USA.gov is the U.S. government's official web portal to all federal, state and local government web resources and services.